sensor_id;sensor_type;location;lat;lon;timestamp;P1;durP1;ratioP1;P2;durP2;ratioP2
12288;SDS011;6207;49.308;7.336;2022-10-16T02:55:38;5.50;;;1.83;;
12288;SDS011;6207;49.308;7.336;2022-10-16T02:58:48;2.10;;;1.80;;
12288;SDS011;6207;49.308;7.336;2022-10-16T03:01:25;3.40;;;1.53;;
12288;SDS011;6207;49.308;7.336;2022-10-16T03:04:20;4.60;;;1.73;;
12288;SDS011;6207;49.308;7.336;2022-10-16T11:06:59;10.70;;;9.90;;
12288;SDS011;6207;49.308;7.336;2022-10-16T11:09:45;10.32;;;9.57;;
12288;SDS011;6207;49.308;7.336;2022-10-16T11:12:20;10.30;;;9.70;;
12288;SDS011;6207;49.308;7.336;2022-10-16T11:15:00;10.95;;;10.25;;
12288;SDS011;6207;49.308;7.336;2022-10-16T11:20:30;11.10;;;10.30;;
12288;SDS011;6207;49.308;7.336;2022-10-16T11:23:02;10.68;;;9.77;;
12288;SDS011;6207;49.308;7.336;2022-10-16T11:25:53;9.50;;;8.90;;
12288;SDS011;6207;49.308;7.336;2022-10-16T11:28:24;10.32;;;9.45;;
12288;SDS011;6207;49.308;7.336;2022-10-16T11:31:08;9.55;;;8.93;;
12288;SDS011;6207;49.308;7.336;2022-10-16T11:33:54;10.30;;;9.25;;
12288;SDS011;6207;49.308;7.336;2022-10-16T11:36:32;10.85;;;9.95;;
12288;SDS011;6207;49.308;7.336;2022-10-16T11:41:47;10.43;;;9.82;;
12288;SDS011;6207;49.308;7.336;2022-10-16T11:47:34;10.93;;;10.13;;
12288;SDS011;6207;49.308;7.336;2022-10-16T11:50:27;11.48;;;10.48;;
12288;SDS011;6207;49.308;7.336;2022-10-16T11:56:20;10.80;;;10.20;;
12288;SDS011;6207;49.308;7.336;2022-10-16T11:58:52;10.30;;;9.70;;
12288;SDS011;6207;49.308;7.336;2022-10-16T12:01:47;10.70;;;10.02;;
12288;SDS011;6207;49.308;7.336;2022-10-16T12:04:22;10.50;;;9.80;;
12288;SDS011;6207;49.308;7.336;2022-10-16T12:07:04;10.57;;;9.63;;
12288;SDS011;6207;49.308;7.336;2022-10-16T12:09:37;10.35;;;9.75;;
12288;SDS011;6207;49.308;7.336;2022-10-16T12:12:23;11.20;;;10.50;;
12288;SDS011;6207;49.308;7.336;2022-10-16T12:18:24;9.85;;;9.25;;
12288;SDS011;6207;49.308;7.336;2022-10-16T12:20:55;10.02;;;9.23;;
12288;SDS011;6207;49.308;7.336;2022-10-16T12:23:53;10.32;;;9.73;;
12288;SDS011;6207;49.308;7.336;2022-10-16T12:26:25;9.65;;;9.05;;
12288;SDS011;6207;49.308;7.336;2022-10-16T12:28:54;9.88;;;9.18;;
12288;SDS011;6207;49.308;7.336;2022-10-16T12:31:22;9.80;;;9.07;;
12288;SDS011;6207;49.308;7.336;2022-10-16T12:33:57;9.48;;;8.98;;
12288;SDS011;6207;49.308;7.336;2022-10-16T12:36:30;10.02;;;9.43;;
12288;SDS011;6207;49.308;7.336;2022-10-16T12:38:59;9.60;;;9.00;;
12288;SDS011;6207;49.308;7.336;2022-10-16T12:41:28;10.38;;;9.60;;
12288;SDS011;6207;49.308;7.336;2022-10-16T12:43:59;10.00;;;9.40;;
12288;SDS011;6207;49.308;7.336;2022-10-16T12:49:05;10.52;;;9.80;;
12288;SDS011;6207;49.308;7.336;2022-10-16T12:51:47;9.75;;;9.25;;
12288;SDS011;6207;49.308;7.336;2022-10-16T12:54:15;10.02;;;9.32;;
12288;SDS011;6207;49.308;7.336;2022-10-16T13:14:05;9.38;;;8.73;;
12288;SDS011;6207;49.308;7.336;2022-10-16T13:19:28;9.40;;;8.60;;
12288;SDS011;6207;49.308;7.336;2022-10-16T13:25:01;9.10;;;8.60;;
12288;SDS011;6207;49.308;7.336;2022-10-16T13:35:50;10.55;;;9.85;;
12288;SDS011;6207;49.308;7.336;2022-10-16T13:38:28;9.80;;;9.15;;
12288;SDS011;6207;49.308;7.336;2022-10-16T13:40:59;10.30;;;9.50;;
12288;SDS011;6207;49.308;7.336;2022-10-16T13:43:28;10.10;;;9.30;;
12288;SDS011;6207;49.308;7.336;2022-10-16T13:46:10;11.15;;;10.25;;
12288;SDS011;6207;49.308;7.336;2022-10-16T13:48:40;10.60;;;9.90;;
12288;SDS011;6207;49.308;7.336;2022-10-16T13:51:17;10.10;;;9.50;;
12288;SDS011;6207;49.308;7.336;2022-10-16T13:53:45;10.20;;;9.40;;
12288;SDS011;6207;49.308;7.336;2022-10-16T13:56:14;9.70;;;9.20;;
12288;SDS011;6207;49.308;7.336;2022-10-16T13:58:42;10.48;;;9.77;;
12288;SDS011;6207;49.308;7.336;2022-10-16T14:01:26;10.55;;;9.60;;
12288;SDS011;6207;49.308;7.336;2022-10-16T14:04:05;11.02;;;10.00;;
12288;SDS011;6207;49.308;7.336;2022-10-16T14:06:34;10.90;;;10.00;;
12288;SDS011;6207;49.308;7.336;2022-10-16T14:09:14;10.45;;;9.70;;
12288;SDS011;6207;49.308;7.336;2022-10-16T14:12:00;9.77;;;9.18;;
12288;SDS011;6207;49.308;7.336;2022-10-16T14:14:49;10.02;;;9.20;;
12288;SDS011;6207;49.308;7.336;2022-10-16T14:17:18;9.93;;;9.25;;
12288;SDS011;6207;49.308;7.336;2022-10-16T14:19:49;10.05;;;9.15;;
12288;SDS011;6207;49.308;7.336;2022-10-16T14:25:13;9.90;;;9.00;;
12288;SDS011;6207;49.308;7.336;2022-10-16T14:30:54;12.02;;;9.65;;
12288;SDS011;6207;49.308;7.336;2022-10-16T14:36:00;10.05;;;9.40;;
12288;SDS011;6207;49.308;7.336;2022-10-16T14:38:37;10.30;;;9.60;;
12288;SDS011;6207;49.308;7.336;2022-10-16T14:41:06;10.40;;;9.60;;
12288;SDS011;6207;49.308;7.336;2022-10-16T14:43:34;9.70;;;9.15;;
12288;SDS011;6207;49.308;7.336;2022-10-16T14:46:19;10.05;;;9.35;;
12288;SDS011;6207;49.308;7.336;2022-10-16T14:48:53;10.73;;;9.90;;
12288;SDS011;6207;49.308;7.336;2022-10-16T14:51:26;10.80;;;9.98;;
12288;SDS011;6207;49.308;7.336;2022-10-16T14:53:53;10.85;;;10.07;;
12288;SDS011;6207;49.308;7.336;2022-10-16T14:56:26;10.38;;;9.77;;
12288;SDS011;6207;49.308;7.336;2022-10-16T14:58:58;10.98;;;9.88;;
12288;SDS011;6207;49.308;7.336;2022-10-16T15:01:26;10.98;;;10.18;;
12288;SDS011;6207;49.308;7.336;2022-10-16T15:03:53;11.32;;;10.30;;
12288;SDS011;6207;49.308;7.336;2022-10-16T15:06:21;11.05;;;10.15;;
12288;SDS011;6207;49.308;7.336;2022-10-16T15:08:48;11.10;;;10.20;;
12288;SDS011;6207;49.308;7.336;2022-10-16T15:11:18;10.57;;;9.93;;
12288;SDS011;6207;49.308;7.336;2022-10-16T15:13:46;11.35;;;10.38;;
12288;SDS011;6207;49.308;7.336;2022-10-16T15:16:14;11.80;;;10.65;;
12288;SDS011;6207;49.308;7.336;2022-10-16T15:18:42;11.30;;;10.30;;
12288;SDS011;6207;49.308;7.336;2022-10-16T15:21:31;11.30;;;10.30;;
12288;SDS011;6207;49.308;7.336;2022-10-16T15:23:58;10.65;;;9.85;;
12288;SDS011;6207;49.308;7.336;2022-10-16T15:26:26;10.90;;;10.07;;
12288;SDS011;6207;49.308;7.336;2022-10-16T15:28:54;10.93;;;10.00;;
12288;SDS011;6207;49.308;7.336;2022-10-16T15:31:21;10.93;;;10.00;;
12288;SDS011;6207;49.308;7.336;2022-10-16T15:33:50;11.05;;;10.25;;
12288;SDS011;6207;49.308;7.336;2022-10-16T15:36:27;11.48;;;10.38;;
12288;SDS011;6207;49.308;7.336;2022-10-16T15:38:54;11.52;;;10.73;;
12288;SDS011;6207;49.308;7.336;2022-10-16T15:41:22;10.65;;;9.95;;
12288;SDS011;6207;49.308;7.336;2022-10-16T15:43:49;10.95;;;9.90;;
12288;SDS011;6207;49.308;7.336;2022-10-16T15:46:20;11.20;;;10.35;;
12288;SDS011;6207;49.308;7.336;2022-10-16T15:48:48;11.00;;;10.00;;
12288;SDS011;6207;49.308;7.336;2022-10-16T15:51:17;10.63;;;9.82;;
12288;SDS011;6207;49.308;7.336;2022-10-16T15:53:44;11.23;;;10.43;;
12288;SDS011;6207;49.308;7.336;2022-10-16T15:56:12;11.05;;;10.13;;
12288;SDS011;6207;49.308;7.336;2022-10-16T15:58:40;10.98;;;10.18;;
12288;SDS011;6207;49.308;7.336;2022-10-16T16:01:07;10.70;;;9.88;;
12288;SDS011;6207;49.308;7.336;2022-10-16T16:03:36;11.10;;;10.00;;
12288;SDS011;6207;49.308;7.336;2022-10-16T16:06:06;10.63;;;9.93;;
12288;SDS011;6207;49.308;7.336;2022-10-16T16:08:35;11.88;;;9.90;;
12288;SDS011;6207;49.308;7.336;2022-10-16T16:11:09;10.77;;;9.65;;
12288;SDS011;6207;49.308;7.336;2022-10-16T16:13:37;10.25;;;9.35;;
12288;SDS011;6207;49.308;7.336;2022-10-16T16:16:05;10.27;;;9.55;;
12288;SDS011;6207;49.308;7.336;2022-10-16T16:18:33;10.18;;;9.38;;
12288;SDS011;6207;49.308;7.336;2022-10-16T16:21:00;9.88;;;9.18;;
12288;SDS011;6207;49.308;7.336;2022-10-16T16:23:28;9.57;;;8.93;;
12288;SDS011;6207;49.308;7.336;2022-10-16T16:28:37;9.23;;;8.32;;
12288;SDS011;6207;49.308;7.336;2022-10-16T16:31:05;10.00;;;8.80;;
12288;SDS011;6207;49.308;7.336;2022-10-16T16:33:32;9.15;;;8.48;;
12288;SDS011;6207;49.308;7.336;2022-10-16T16:36:00;9.57;;;8.48;;
12288;SDS011;6207;49.308;7.336;2022-10-16T16:38:29;9.73;;;8.65;;
12288;SDS011;6207;49.308;7.336;2022-10-16T16:40:57;9.18;;;8.40;;
12288;SDS011;6207;49.308;7.336;2022-10-16T16:43:24;9.90;;;7.90;;
12288;SDS011;6207;49.308;7.336;2022-10-16T16:45:52;9.02;;;8.20;;
12288;SDS011;6207;49.308;7.336;2022-10-16T16:48:20;8.52;;;7.80;;
12288;SDS011;6207;49.308;7.336;2022-10-16T16:50:47;10.52;;;8.27;;
12288;SDS011;6207;49.308;7.336;2022-10-16T16:53:14;13.85;;;8.48;;
12288;SDS011;6207;49.308;7.336;2022-10-16T16:55:41;9.55;;;8.55;;
12288;SDS011;6207;49.308;7.336;2022-10-16T16:58:08;11.70;;;8.10;;
12288;SDS011;6207;49.308;7.336;2022-10-16T17:00:35;12.48;;;7.65;;
12288;SDS011;6207;49.308;7.336;2022-10-16T17:03:02;10.13;;;7.80;;
12288;SDS011;6207;49.308;7.336;2022-10-16T17:05:28;11.13;;;8.45;;
12288;SDS011;6207;49.308;7.336;2022-10-16T17:07:55;12.35;;;7.95;;
12288;SDS011;6207;49.308;7.336;2022-10-16T17:10:22;13.75;;;7.85;;
12288;SDS011;6207;49.308;7.336;2022-10-16T17:12:48;13.57;;;8.27;;
12288;SDS011;6207;49.308;7.336;2022-10-16T17:15:16;11.48;;;8.50;;
12288;SDS011;6207;49.308;7.336;2022-10-16T17:17:43;13.73;;;8.98;;
12288;SDS011;6207;49.308;7.336;2022-10-16T17:20:09;13.32;;;10.00;;
12288;SDS011;6207;49.308;7.336;2022-10-16T17:22:36;16.23;;;9.57;;
12288;SDS011;6207;49.308;7.336;2022-10-16T17:25:03;15.35;;;8.90;;
12288;SDS011;6207;49.308;7.336;2022-10-16T17:27:33;19.85;;;9.38;;
12288;SDS011;6207;49.308;7.336;2022-10-16T17:30:02;13.23;;;8.98;;
12288;SDS011;6207;49.308;7.336;2022-10-16T17:32:30;12.82;;;8.90;;
12288;SDS011;6207;49.308;7.336;2022-10-16T17:34:56;12.70;;;9.27;;
12288;SDS011;6207;49.308;7.336;2022-10-16T17:37:23;16.50;;;9.20;;
12288;SDS011;6207;49.308;7.336;2022-10-16T17:39:50;15.65;;;8.85;;
12288;SDS011;6207;49.308;7.336;2022-10-16T17:42:17;15.30;;;9.13;;
12288;SDS011;6207;49.308;7.336;2022-10-16T17:44:44;10.27;;;8.15;;
12288;SDS011;6207;49.308;7.336;2022-10-16T17:47:11;25.77;;;13.90;;
12288;SDS011;6207;49.308;7.336;2022-10-16T17:49:38;13.65;;;9.15;;
12288;SDS011;6207;49.308;7.336;2022-10-16T17:52:05;14.25;;;10.13;;
12288;SDS011;6207;49.308;7.336;2022-10-16T17:54:32;16.00;;;10.87;;
12288;SDS011;6207;49.308;7.336;2022-10-16T17:56:59;18.92;;;10.63;;
12288;SDS011;6207;49.308;7.336;2022-10-16T17:59:26;12.35;;;10.05;;
12288;SDS011;6207;49.308;7.336;2022-10-16T18:01:53;20.73;;;10.33;;
12288;SDS011;6207;49.308;7.336;2022-10-16T18:04:20;20.97;;;10.13;;
12288;SDS011;6207;49.308;7.336;2022-10-16T18:06:47;15.97;;;10.00;;
12288;SDS011;6207;49.308;7.336;2022-10-16T18:09:14;16.83;;;10.18;;
12288;SDS011;6207;49.308;7.336;2022-10-16T18:11:46;14.38;;;10.32;;
12288;SDS011;6207;49.308;7.336;2022-10-16T18:14:25;18.35;;;11.10;;
12288;SDS011;6207;49.308;7.336;2022-10-16T18:16:54;17.73;;;11.53;;
12288;SDS011;6207;49.308;7.336;2022-10-16T18:19:22;20.27;;;12.17;;
12288;SDS011;6207;49.308;7.336;2022-10-16T18:21:49;20.13;;;11.65;;
12288;SDS011;6207;49.308;7.336;2022-10-16T18:24:17;17.57;;;10.67;;
12288;SDS011;6207;49.308;7.336;2022-10-16T18:26:44;18.57;;;11.37;;
12288;SDS011;6207;49.308;7.336;2022-10-16T18:29:11;15.93;;;10.90;;
12288;SDS011;6207;49.308;7.336;2022-10-16T18:31:38;16.63;;;10.73;;
12288;SDS011;6207;49.308;7.336;2022-10-16T18:34:08;20.40;;;10.47;;
12288;SDS011;6207;49.308;7.336;2022-10-16T18:36:35;17.80;;;10.90;;
12288;SDS011;6207;49.308;7.336;2022-10-16T18:39:03;21.45;;;10.90;;
12288;SDS011;6207;49.308;7.336;2022-10-16T18:41:34;19.03;;;11.13;;
12288;SDS011;6207;49.308;7.336;2022-10-16T18:44:04;19.80;;;11.63;;
12288;SDS011;6207;49.308;7.336;2022-10-16T18:46:31;19.03;;;12.70;;
12288;SDS011;6207;49.308;7.336;2022-10-16T18:48:58;19.58;;;11.55;;
12288;SDS011;6207;49.308;7.336;2022-10-16T18:51:30;21.20;;;12.20;;
12288;SDS011;6207;49.308;7.336;2022-10-16T18:54:07;21.20;;;12.43;;
12288;SDS011;6207;49.308;7.336;2022-10-16T18:56:35;18.90;;;12.30;;
12288;SDS011;6207;49.308;7.336;2022-10-16T18:59:02;19.90;;;12.07;;
12288;SDS011;6207;49.308;7.336;2022-10-16T19:01:32;21.60;;;13.30;;
12288;SDS011;6207;49.308;7.336;2022-10-16T19:04:01;21.17;;;12.70;;
12288;SDS011;6207;49.308;7.336;2022-10-16T19:06:33;21.53;;;12.13;;
12288;SDS011;6207;49.308;7.336;2022-10-16T19:09:02;19.50;;;12.80;;
12288;SDS011;6207;49.308;7.336;2022-10-16T19:11:30;20.60;;;12.07;;
12288;SDS011;6207;49.308;7.336;2022-10-16T19:13:59;24.50;;;12.70;;
12288;SDS011;6207;49.308;7.336;2022-10-16T19:16:28;17.20;;;11.83;;
12288;SDS011;6207;49.308;7.336;2022-10-16T19:18:57;23.13;;;13.00;;
12288;SDS011;6207;49.308;7.336;2022-10-16T19:21:25;22.87;;;13.90;;
12288;SDS011;6207;49.308;7.336;2022-10-16T19:23:54;27.20;;;12.50;;
12288;SDS011;6207;49.308;7.336;2022-10-16T19:26:23;22.80;;;12.37;;
12288;SDS011;6207;49.308;7.336;2022-10-16T19:28:53;22.70;;;13.37;;
12288;SDS011;6207;49.308;7.336;2022-10-16T19:31:21;22.27;;;12.83;;
12288;SDS011;6207;49.308;7.336;2022-10-16T19:33:50;25.67;;;13.70;;
12288;SDS011;6207;49.308;7.336;2022-10-16T19:36:19;22.27;;;13.45;;
12288;SDS011;6207;49.308;7.336;2022-10-16T19:38:52;23.53;;;13.40;;
12288;SDS011;6207;49.308;7.336;2022-10-16T19:41:20;27.70;;;12.77;;
12288;SDS011;6207;49.308;7.336;2022-10-16T19:43:49;24.27;;;13.40;;
12288;SDS011;6207;49.308;7.336;2022-10-16T19:46:17;20.83;;;12.03;;
12288;SDS011;6207;49.308;7.336;2022-10-16T19:48:46;19.43;;;12.57;;
12288;SDS011;6207;49.308;7.336;2022-10-16T19:51:15;29.80;;;12.83;;
12288;SDS011;6207;49.308;7.336;2022-10-16T19:53:43;25.37;;;12.77;;
12288;SDS011;6207;49.308;7.336;2022-10-16T19:56:15;27.57;;;13.67;;
12288;SDS011;6207;49.308;7.336;2022-10-16T19:58:44;27.40;;;14.33;;
12288;SDS011;6207;49.308;7.336;2022-10-16T20:01:11;24.17;;;13.13;;
12288;SDS011;6207;49.308;7.336;2022-10-16T20:03:39;21.77;;;12.87;;
12288;SDS011;6207;49.308;7.336;2022-10-16T20:06:08;26.17;;;12.53;;
12288;SDS011;6207;49.308;7.336;2022-10-16T20:08:35;24.90;;;12.37;;
12288;SDS011;6207;49.308;7.336;2022-10-16T20:11:04;23.37;;;12.27;;
12288;SDS011;6207;49.308;7.336;2022-10-16T20:13:35;19.47;;;11.47;;
12288;SDS011;6207;49.308;7.336;2022-10-16T20:16:07;20.93;;;12.33;;
12288;SDS011;6207;49.308;7.336;2022-10-16T20:18:36;24.63;;;12.13;;
12288;SDS011;6207;49.308;7.336;2022-10-16T20:21:08;27.90;;;12.73;;
12288;SDS011;6207;49.308;7.336;2022-10-16T20:23:35;26.13;;;11.30;;
12288;SDS011;6207;49.308;7.336;2022-10-16T20:26:03;19.57;;;11.67;;
12288;SDS011;6207;49.308;7.336;2022-10-16T20:28:30;25.63;;;11.57;;
12288;SDS011;6207;49.308;7.336;2022-10-16T20:30:57;22.27;;;12.77;;
12288;SDS011;6207;49.308;7.336;2022-10-16T20:33:23;27.83;;;12.90;;
12288;SDS011;6207;49.308;7.336;2022-10-16T20:35:50;22.10;;;11.87;;
12288;SDS011;6207;49.308;7.336;2022-10-16T20:38:17;20.47;;;12.83;;
12288;SDS011;6207;49.308;7.336;2022-10-16T20:40:45;25.30;;;12.40;;
12288;SDS011;6207;49.308;7.336;2022-10-16T20:43:14;33.17;;;12.67;;
12288;SDS011;6207;49.308;7.336;2022-10-16T20:45:43;27.13;;;13.03;;
12288;SDS011;6207;49.308;7.336;2022-10-16T20:48:11;26.27;;;12.57;;
12288;SDS011;6207;49.308;7.336;2022-10-16T20:50:40;28.73;;;13.07;;
12288;SDS011;6207;49.308;7.336;2022-10-16T20:53:07;26.87;;;13.43;;
12288;SDS011;6207;49.308;7.336;2022-10-16T20:55:35;22.50;;;13.27;;
12288;SDS011;6207;49.308;7.336;2022-10-16T20:58:03;28.17;;;12.37;;
12288;SDS011;6207;49.308;7.336;2022-10-16T21:00:30;22.20;;;12.50;;
12288;SDS011;6207;49.308;7.336;2022-10-16T21:02:57;27.63;;;13.53;;
12288;SDS011;6207;49.308;7.336;2022-10-16T21:05:24;25.80;;;14.47;;
12288;SDS011;6207;49.308;7.336;2022-10-16T21:07:56;24.50;;;13.93;;
12288;SDS011;6207;49.308;7.336;2022-10-16T21:10:23;21.33;;;13.53;;
12288;SDS011;6207;49.308;7.336;2022-10-16T21:12:53;22.87;;;12.57;;
12288;SDS011;6207;49.308;7.336;2022-10-16T21:15:20;27.43;;;13.60;;
12288;SDS011;6207;49.308;7.336;2022-10-16T21:17:47;24.10;;;13.33;;
12288;SDS011;6207;49.308;7.336;2022-10-16T21:20:14;33.80;;;14.43;;
12288;SDS011;6207;49.308;7.336;2022-10-16T21:22:41;24.03;;;13.63;;
12288;SDS011;6207;49.308;7.336;2022-10-16T21:25:08;24.73;;;13.47;;
12288;SDS011;6207;49.308;7.336;2022-10-16T21:27:39;20.00;;;12.90;;
12288;SDS011;6207;49.308;7.336;2022-10-16T21:30:06;22.10;;;13.07;;
12288;SDS011;6207;49.308;7.336;2022-10-16T21:32:35;23.63;;;12.77;;
12288;SDS011;6207;49.308;7.336;2022-10-16T21:35:02;26.63;;;12.87;;
12288;SDS011;6207;49.308;7.336;2022-10-16T21:37:31;23.27;;;12.87;;
12288;SDS011;6207;49.308;7.336;2022-10-16T21:39:58;27.47;;;13.90;;
12288;SDS011;6207;49.308;7.336;2022-10-16T21:42:25;29.73;;;13.43;;
12288;SDS011;6207;49.308;7.336;2022-10-16T21:44:52;18.43;;;11.90;;
12288;SDS011;6207;49.308;7.336;2022-10-16T21:47:19;27.80;;;12.87;;
12288;SDS011;6207;49.308;7.336;2022-10-16T21:49:45;24.00;;;13.27;;
12288;SDS011;6207;49.308;7.336;2022-10-16T21:52:12;24.87;;;13.50;;
12288;SDS011;6207;49.308;7.336;2022-10-16T21:54:39;23.40;;;13.30;;
12288;SDS011;6207;49.308;7.336;2022-10-16T21:57:06;24.30;;;14.50;;
12288;SDS011;6207;49.308;7.336;2022-10-16T21:59:33;17.93;;;12.33;;
12288;SDS011;6207;49.308;7.336;2022-10-16T22:01:59;24.53;;;13.97;;
12288;SDS011;6207;49.308;7.336;2022-10-16T22:04:28;24.87;;;13.17;;
12288;SDS011;6207;49.308;7.336;2022-10-16T22:06:55;25.77;;;12.87;;
12288;SDS011;6207;49.308;7.336;2022-10-16T22:09:22;26.27;;;15.57;;
12288;SDS011;6207;49.308;7.336;2022-10-16T22:11:48;29.00;;;14.80;;
12288;SDS011;6207;49.308;7.336;2022-10-16T22:14:16;23.70;;;12.70;;
12288;SDS011;6207;49.308;7.336;2022-10-16T22:16:44;31.70;;;14.77;;
12288;SDS011;6207;49.308;7.336;2022-10-16T22:19:13;26.10;;;16.50;;
12288;SDS011;6207;49.308;7.336;2022-10-16T22:21:42;23.20;;;14.83;;
12288;SDS011;6207;49.308;7.336;2022-10-16T22:24:13;25.93;;;15.70;;
12288;SDS011;6207;49.308;7.336;2022-10-16T22:26:41;23.40;;;14.67;;
12288;SDS011;6207;49.308;7.336;2022-10-16T22:29:09;26.90;;;14.43;;
12288;SDS011;6207;49.308;7.336;2022-10-16T22:31:38;25.73;;;14.53;;
12288;SDS011;6207;49.308;7.336;2022-10-16T22:34:04;25.80;;;15.33;;
12288;SDS011;6207;49.308;7.336;2022-10-16T22:36:31;26.07;;;15.07;;
12288;SDS011;6207;49.308;7.336;2022-10-16T22:38:59;27.93;;;14.43;;
12288;SDS011;6207;49.308;7.336;2022-10-16T22:41:25;28.57;;;15.13;;
12288;SDS011;6207;49.308;7.336;2022-10-16T22:43:52;26.07;;;14.67;;
12288;SDS011;6207;49.308;7.336;2022-10-16T22:46:20;27.63;;;15.83;;
12288;SDS011;6207;49.308;7.336;2022-10-16T22:48:52;25.20;;;15.70;;
12288;SDS011;6207;49.308;7.336;2022-10-16T22:51:21;29.03;;;15.60;;
12288;SDS011;6207;49.308;7.336;2022-10-16T22:53:49;27.17;;;15.13;;
12288;SDS011;6207;49.308;7.336;2022-10-16T22:56:16;27.50;;;15.97;;
12288;SDS011;6207;49.308;7.336;2022-10-16T22:58:46;22.47;;;15.37;;
12288;SDS011;6207;49.308;7.336;2022-10-16T23:01:24;27.90;;;15.53;;
12288;SDS011;6207;49.308;7.336;2022-10-16T23:03:53;29.23;;;16.23;;
12288;SDS011;6207;49.308;7.336;2022-10-16T23:06:19;29.93;;;16.17;;
12288;SDS011;6207;49.308;7.336;2022-10-16T23:08:53;27.77;;;16.60;;
12288;SDS011;6207;49.308;7.336;2022-10-16T23:11:21;23.43;;;15.37;;
12288;SDS011;6207;49.308;7.336;2022-10-16T23:13:48;29.43;;;16.67;;
12288;SDS011;6207;49.308;7.336;2022-10-16T23:16:16;27.73;;;16.10;;
12288;SDS011;6207;49.308;7.336;2022-10-16T23:18:44;23.13;;;15.30;;
12288;SDS011;6207;49.308;7.336;2022-10-16T23:21:12;25.80;;;15.77;;
12288;SDS011;6207;49.308;7.336;2022-10-16T23:23:44;29.00;;;15.53;;
12288;SDS011;6207;49.308;7.336;2022-10-16T23:26:12;29.70;;;16.23;;
12288;SDS011;6207;49.308;7.336;2022-10-16T23:28:43;25.13;;;15.20;;
12288;SDS011;6207;49.308;7.336;2022-10-16T23:31:11;22.30;;;14.40;;
12288;SDS011;6207;49.308;7.336;2022-10-16T23:33:39;28.63;;;15.63;;
12288;SDS011;6207;49.308;7.336;2022-10-16T23:36:07;26.30;;;16.40;;
12288;SDS011;6207;49.308;7.336;2022-10-16T23:38:35;29.37;;;15.27;;
12288;SDS011;6207;49.308;7.336;2022-10-16T23:41:02;24.93;;;15.53;;
12288;SDS011;6207;49.308;7.336;2022-10-16T23:43:29;28.73;;;15.90;;
12288;SDS011;6207;49.308;7.336;2022-10-16T23:45:56;30.60;;;15.50;;
12288;SDS011;6207;49.308;7.336;2022-10-16T23:48:23;26.87;;;15.43;;
12288;SDS011;6207;49.308;7.336;2022-10-16T23:50:50;24.23;;;15.00;;
12288;SDS011;6207;49.308;7.336;2022-10-16T23:53:17;27.00;;;14.83;;
12288;SDS011;6207;49.308;7.336;2022-10-16T23:55:44;27.30;;;14.80;;
12288;SDS011;6207;49.308;7.336;2022-10-16T23:58:10;27.67;;;15.23;;
